Time;durP1;ratioP1;P1;durP2;ratioP2;P2;SDS_P1;SDS_P2;PMS_P1;PMS_P2;Temp;Humidity;BMP_temperature;BMP_pressure;BME280_temperature;BME280_humidity;BME280_pressure;Samples;Min_cycle;Max_cycle;Signal;HPM_P1;HPM_P2
2022/11/04 00:02:05;;;;;;;6.65;2.08;;;26.00;92.80;;;;;;5044874;28;20028;-50
2022/11/04 00:04:31;;;;;;;4.97;2.85;;;26.00;92.80;;;;;;5045127;28;20029;-45
2022/11/04 00:06:58;;;;;;;9.82;4.28;;;25.90;92.80;;;;;;5044616;28;20017;-45
2022/11/04 00:09:29;;;;;;;7.60;4.38;;;25.90;92.80;;;;;;5044670;28;20321;-43
2022/11/04 00:14:42;;;;;;;9.07;4.28;;;26.00;92.90;;;;;;5044559;28;20052;-42
2022/11/04 00:17:18;;;;;;;7.20;3.60;;;25.90;92.90;;;;;;5044697;28;20034;-45
2022/11/04 00:33:24;;;;;;;5.20;1.20;;;25.90;93.10;;;;;;5044170;28;20359;-43
2022/11/04 00:33:48;;;;;;;4.85;1.30;;;25.90;93.10;;;;;;5044343;28;20045;-40
2022/11/04 00:36:15;;;;;;;6.50;1.65;;;25.90;93.20;;;;;;5043975;28;20026;-46
2022/11/04 00:38:42;;;;;;;5.85;1.50;;;25.90;93.20;;;;;;5044084;28;20045;-46
2022/11/04 00:41:27;;;;;;;3.75;0.93;;;25.90;93.40;;;;;;5043884;28;20025;-43
2022/11/04 00:44:04;;;;;;;3.42;1.20;;;25.90;93.20;;;;;;5044357;28;20021;-41
2022/11/04 00:46:32;;;;;;;3.60;0.70;;;25.90;93.20;;;;;;5044266;28;20190;-44
2022/11/04 00:48:59;;;;;;;2.25;0.60;;;25.90;93.30;;;;;;5043763;28;20080;-41
2022/11/04 00:51:26;;;;;;;6.70;1.02;;;25.90;93.30;;;;;;5044290;28;20037;-48
2022/11/04 00:53:54;;;;;;;5.78;0.85;;;25.90;93.30;;;;;;5044057;28;20088;-43
2022/11/04 00:56:20;;;;;;;7.85;1.23;;;25.90;93.30;;;;;;5043742;28;20032;-43
2022/11/04 00:58:48;;;;;;;11.10;1.40;;;25.90;93.30;;;;;;5044225;28;20025;-44
2022/11/04 01:01:17;;;;;;;4.43;0.90;;;25.90;93.40;;;;;;5043939;28;20033;-48
2022/11/04 01:03:48;;;;;;;29.58;2.75;;;25.80;93.40;;;;;;5043879;28;20040;-42
2022/11/04 01:06:15;;;;;;;18.38;1.40;;;25.90;93.40;;;;;;5047940;28;20103;-41
2022/11/04 01:08:41;;;;;;;3.33;1.10;;;25.80;93.40;;;;;;5047891;28;20044;-43
2022/11/04 01:11:09;;;;;;;3.22;0.90;;;25.80;93.40;;;;;;5047881;28;20018;-48
2022/11/04 01:13:37;;;;;;;5.50;0.90;;;25.80;93.50;;;;;;5047558;28;20029;-40
2022/11/04 01:16:06;;;;;;;2.95;0.50;;;25.80;93.40;;;;;;5047874;28;20045;-45
2022/11/04 01:18:33;;;;;;;3.85;1.00;;;25.80;93.50;;;;;;5047734;28;20052;-46
2022/11/04 01:21:05;;;;;;;4.10;0.85;;;25.80;93.50;;;;;;5047739;28;20063;-46
2022/11/04 01:23:34;;;;;;;6.20;0.60;;;25.80;93.50;;;;;;5047723;28;20093;-43
2022/11/04 01:26:00;;;;;;;4.60;0.60;;;25.80;93.50;;;;;;5047238;28;20410;-41
2022/11/04 01:28:27;;;;;;;3.10;0.70;;;25.80;93.50;;;;;;5047302;28;20033;-43
2022/11/04 01:30:54;;;;;;;6.00;0.50;;;25.80;93.40;;;;;;5047750;28;20309;-46
2022/11/04 01:33:21;;;;;;;2.42;0.38;;;25.70;93.40;;;;;;5047472;28;20128;-49
2022/11/04 01:35:48;;;;;;;3.63;0.30;;;25.80;93.30;;;;;;5047168;28;20109;-47
2022/11/04 01:38:14;;;;;;;7.07;0.50;;;25.80;93.30;;;;;;5047227;28;20057;-55
2022/11/04 01:40:41;;;;;;;16.35;0.85;;;25.70;93.20;;;;;;5047413;28;20071;-42
2022/11/04 01:43:19;;;;;;;4.13;0.60;;;25.70;93.20;;;;;;5047007;28;20044;-45
2022/11/04 01:45:58;;;;;;;4.28;0.75;;;25.70;93.20;;;;;;5046949;28;20085;-47
2022/11/04 01:48:34;;;;;;;20.42;2.08;;;25.70;93.20;;;;;;5046724;28;20041;-42
2022/11/04 01:51:02;;;;;;;4.97;0.70;;;25.70;93.10;;;;;;5046885;28;20261;-42
2022/11/04 01:53:39;;;;;;;5.00;0.77;;;25.70;93.20;;;;;;5046887;28;20061;-44
2022/11/04 01:56:10;;;;;;;4.22;0.50;;;25.70;93.20;;;;;;5047543;28;20009;-45
2022/11/04 01:58:42;;;;;;;3.30;0.43;;;25.70;93.30;;;;;;5046998;28;20329;-45
2022/11/04 02:01:10;;;;;;;6.03;0.73;;;25.70;93.20;;;;;;5047608;28;20029;-44
2022/11/04 02:03:48;;;;;;;9.43;0.93;;;25.70;93.20;;;;;;5046544;28;20037;-47
2022/11/04 02:06:16;;;;;;;6.35;0.80;;;25.70;93.20;;;;;;5047247;28;20021;-42
2022/11/04 02:08:43;;;;;;;2.50;0.45;;;25.70;93.20;;;;;;5046602;28;20048;-44
2022/11/04 02:11:10;;;;;;;5.13;0.60;;;25.70;93.20;;;;;;5046497;28;20040;-41
2022/11/04 02:13:37;;;;;;;6.07;0.50;;;25.70;93.30;;;;;;5046979;28;20031;-41
2022/11/04 02:16:25;;;;;;;3.80;0.65;;;25.70;93.30;;;;;;5046178;28;20029;-46
2022/11/04 02:19:08;;;;;;;2.17;0.30;;;25.60;93.30;;;;;;5046820;28;20036;-41
2022/11/04 02:21:53;;;;;;;3.60;0.70;;;25.60;93.30;;;;;;5046670;28;20244;-44
2022/11/04 02:24:47;;;;;;;16.95;0.80;;;25.60;93.40;;;;;;5046969;28;20025;-49
2022/11/04 02:28:04;;;;;;;5.53;0.35;;;25.60;93.40;;;;;;5046251;28;20029;-40
2022/11/04 02:30:38;;;;;;;4.10;0.38;;;25.60;93.40;;;;;;5005582;28;20093;-41
2022/11/04 02:33:39;;;;;;;4.18;0.40;;;25.60;93.40;;;;;;5046677;28;20040;-45
2022/11/04 02:36:26;;;;;;;6.68;0.43;;;25.60;93.40;;;;;;5046641;28;20093;-41
2022/11/04 02:38:59;;;;;;;5.20;0.40;;;25.60;93.40;;;;;;5046451;28;20075;-43
2022/11/04 02:41:48;;;;;;;2.90;0.50;;;25.60;93.40;;;;;;5046507;28;20032;-41
2022/11/04 02:44:26;;;;;;;5.97;0.30;;;25.50;93.50;;;;;;5046626;28;20217;-43
2022/11/04 02:46:58;;;;;;;2.38;0.32;;;25.60;93.50;;;;;;5046291;28;20162;-51
2022/11/04 02:50:02;;;;;;;3.47;0.38;;;25.50;93.50;;;;;;5045721;28;20033;-41
2022/11/04 02:52:58;;;;;;;5.28;0.40;;;25.50;93.50;;;;;;4995629;28;20029;-43
2022/11/04 02:55:29;;;;;;;3.05;0.40;;;25.50;93.50;;;;;;5045989;28;20221;-43
2022/11/04 02:57:59;;;;;;;4.53;0.30;;;25.50;93.50;;;;;;5046121;28;20022;-42
2022/11/04 03:00:26;;;;;;;2.95;0.50;;;25.50;93.50;;;;;;5046079;28;20221;-52
2022/11/04 03:03:01;;;;;;;2.30;0.55;;;25.50;93.50;;;;;;5046606;28;20083;-45
2022/11/04 03:05:34;;;;;;;1.73;0.28;;;25.50;93.50;;;;;;5046002;28;20030;-46
2022/11/04 03:08:13;;;;;;;2.20;0.65;;;25.50;93.60;;;;;;5045518;28;20032;-44
2022/11/04 03:10:43;;;;;;;4.78;0.50;;;25.50;93.60;;;;;;5045648;28;20069;-44
2022/11/04 03:13:14;;;;;;;5.32;0.70;;;25.50;93.60;;;;;;5045499;28;20044;-47
2022/11/04 03:15:47;;;;;;;2.30;0.50;;;25.50;93.60;;;;;;5045690;28;20029;-54
2022/11/04 03:18:19;;;;;;;4.03;0.47;;;25.50;93.60;;;;;;5045600;28;20067;-44
2022/11/04 03:20:49;;;;;;;4.80;0.40;;;25.50;93.60;;;;;;5045519;28;20245;-48
2022/11/04 03:23:15;;;;;;;3.97;0.30;;;25.50;93.60;;;;;;5045500;28;20021;-40
2022/11/04 03:25:47;;;;;;;4.72;0.50;;;25.50;93.70;;;;;;5045457;28;20037;-45
2022/11/04 03:28:34;;;;;;;5.78;0.50;;;25.50;93.70;;;;;;5044386;28;20038;-43
2022/11/04 03:31:03;;;;;;;4.38;0.40;;;25.50;93.70;;;;;;5045328;28;20026;-41
2022/11/04 03:33:34;;;;;;;2.90;0.40;;;25.50;93.70;;;;;;5045360;28;20292;-44
2022/11/04 03:36:02;;;;;;;6.88;0.40;;;25.40;93.70;;;;;;5045063;28;20052;-54
2022/11/04 03:38:31;;;;;;;9.02;0.50;;;25.50;93.70;;;;;;5044757;28;20121;-42
2022/11/04 03:40:59;;;;;;;3.83;0.68;;;25.40;93.70;;;;;;5045206;28;20213;-49
2022/11/04 03:43:28;;;;;;;3.67;0.20;;;25.50;93.80;;;;;;5045028;28;20033;-40
2022/11/04 03:45:55;;;;;;;4.57;0.30;;;25.40;93.80;;;;;;5049643;28;20093;-46
2022/11/04 03:48:22;;;;;;;4.18;0.40;;;25.40;93.70;;;;;;5055564;28;20097;-46
2022/11/04 03:50:50;;;;;;;6.60;0.50;;;25.40;93.70;;;;;;5064243;28;20132;-42
2022/11/04 03:53:23;;;;;;;3.95;0.30;;;25.40;93.70;;;;;;5064198;28;20088;-41
2022/11/04 03:55:53;;;;;;;4.15;0.40;;;25.50;93.80;;;;;;5064487;28;20017;-44
2022/11/04 03:58:58;;;;;;;6.32;0.40;;;25.40;93.70;;;;;;5064279;28;20067;-40
2022/11/04 04:01:30;;;;;;;7.88;0.60;;;25.40;93.70;;;;;;5064481;28;20017;-41
2022/11/04 04:04:12;;;;;;;2.92;0.35;;;25.40;93.70;;;;;;5064224;28;20054;-43
2022/11/04 04:06:40;;;;;;;4.70;0.32;;;25.40;93.80;;;;;;5064234;28;20053;-45
2022/11/04 04:09:46;;;;;;;3.28;0.35;;;25.50;93.80;;;;;;5063980;28;20045;-55
2022/11/04 04:12:25;;;;;;;2.42;0.20;;;25.50;93.80;;;;;;5064086;28;20017;-45
2022/11/04 04:14:54;;;;;;;1.77;0.40;;;25.50;93.90;;;;;;5064239;28;20071;-48
2022/11/04 04:17:31;;;;;;;2.03;0.30;;;25.40;93.90;;;;;;5064258;28;20017;-49
2022/11/04 04:20:13;;;;;;;7.65;0.40;;;25.40;93.90;;;;;;5063882;28;20061;-42
2022/11/04 04:22:46;;;;;;;2.67;0.40;;;25.40;93.80;;;;;;5064357;28;20021;-47
2022/11/04 04:28:14;;;;;;;3.80;0.50;;;25.40;93.90;;;;;;4992978;28;20042;-42
2022/11/04 04:30:42;;;;;;;3.38;0.40;;;25.40;93.90;;;;;;5063890;28;20021;-43
2022/11/04 04:33:14;;;;;;;4.60;0.40;;;25.40;93.90;;;;;;5064096;28;20031;-44
2022/11/04 04:35:55;;;;;;;5.05;0.43;;;25.30;93.90;;;;;;5063727;28;20056;-42
2022/11/04 04:46:48;;;;;;;2.97;0.50;;;25.30;93.90;;;;;;5061551;28;20075;-43
2022/11/04 04:49:15;;;;;;;4.32;0.32;;;25.30;94.00;;;;;;5063634;28;20052;-50
2022/11/04 04:51:46;;;;;;;4.10;0.40;;;25.30;94.00;;;;;;5063859;28;20281;-42
2022/11/04 04:54:13;;;;;;;5.85;0.40;;;25.30;93.90;;;;;;5063493;28;20020;-43
2022/11/04 04:56:40;;;;;;;5.03;0.52;;;25.30;94.20;;;;;;5063791;28;20024;-42
2022/11/04 04:59:06;;;;;;;3.20;0.50;;;25.30;94.00;;;;;;5063657;28;20031;-43
2022/11/04 05:01:33;;;;;;;4.03;0.50;;;25.30;94.00;;;;;;5063442;28;20024;-47
2022/11/04 05:03:59;;;;;;;3.83;0.43;;;25.30;94.00;;;;;;5063677;28;20040;-43
2022/11/04 05:06:26;;;;;;;3.35;0.47;;;25.30;94.10;;;;;;5063652;28;20186;-46
2022/11/04 05:08:53;;;;;;;2.13;0.40;;;25.30;94.10;;;;;;5063443;28;20139;-46
2022/11/04 05:11:19;;;;;;;5.35;0.45;;;25.30;94.10;;;;;;5063729;28;20021;-44
2022/11/04 05:13:46;;;;;;;3.00;0.50;;;25.20;94.10;;;;;;5063402;28;20115;-47
2022/11/04 05:16:12;;;;;;;5.40;0.88;;;25.30;94.10;;;;;;5063322;28;20017;-52
2022/11/04 05:18:39;;;;;;;2.95;0.40;;;25.30;94.00;;;;;;5063655;28;20056;-46
2022/11/04 05:21:15;;;;;;;4.13;0.43;;;25.30;94.10;;;;;;5063669;28;20036;-43
2022/11/04 05:23:42;;;;;;;2.15;0.40;;;25.20;94.10;;;;;;5063222;28;20237;-42
2022/11/04 05:26:09;;;;;;;5.03;0.70;;;25.20;94.10;;;;;;5063362;28;20025;-48
2022/11/04 05:28:35;;;;;;;4.63;0.50;;;25.20;94.10;;;;;;5063261;28;20075;-46
2022/11/04 05:31:04;;;;;;;3.15;0.30;;;25.20;94.10;;;;;;5063232;28;20056;-46
2022/11/04 05:33:31;;;;;;;2.47;0.50;;;25.30;94.00;;;;;;5063253;28;20256;-45
2022/11/04 05:36:27;;;;;;;4.68;0.32;;;25.30;94.00;;;;;;5063386;28;20013;-44
2022/11/04 05:38:56;;;;;;;2.42;0.45;;;25.30;94.10;;;;;;5046531;28;20064;-42
2022/11/04 05:41:26;;;;;;;3.60;0.52;;;25.30;94.10;;;;;;5063495;28;20083;-44
2022/11/04 05:44:00;;;;;;;3.10;0.20;;;25.30;94.10;;;;;;5063015;28;20036;-41
2022/11/04 05:46:27;;;;;;;7.97;0.55;;;25.30;94.20;;;;;;5063182;28;20028;-40
2022/11/04 05:48:54;;;;;;;4.25;0.30;;;25.20;94.10;;;;;;5062905;28;20047;-48
2022/11/04 05:51:23;;;;;;;5.38;0.40;;;25.20;94.10;;;;;;5064140;28;20017;-51
2022/11/04 05:53:50;;;;;;;3.85;0.63;;;25.20;94.10;;;;;;5066661;28;20027;-46
2022/11/04 05:56:16;;;;;;;9.80;0.60;;;25.20;94.20;;;;;;5066671;28;20025;-43
2022/11/04 05:58:43;;;;;;;2.53;0.30;;;25.20;94.10;;;;;;5066570;28;20171;-44
2022/11/04 06:01:22;;;;;;;5.40;0.50;;;25.20;94.20;;;;;;5066672;28;20208;-44
2022/11/04 06:03:48;;;;;;;1.98;0.30;;;25.20;94.20;;;;;;5066571;28;20025;-44
2022/11/04 06:06:15;;;;;;;3.40;0.32;;;25.20;94.20;;;;;;5066609;28;20060;-50
2022/11/04 06:08:41;;;;;;;4.65;0.30;;;25.20;94.20;;;;;;5066496;28;20094;-45
2022/11/04 06:11:08;;;;;;;2.85;0.30;;;25.20;94.20;;;;;;5066254;28;20028;-44
2022/11/04 06:13:34;;;;;;;3.85;0.43;;;25.20;94.20;;;;;;5066232;28;20040;-45
2022/11/04 06:16:01;;;;;;;2.85;0.30;;;25.20;94.30;;;;;;5066237;28;20020;-49
2022/11/04 06:18:27;;;;;;;4.10;0.30;;;25.20;94.30;;;;;;5066258;28;20143;-43
2022/11/04 06:21:10;;;;;;;4.85;0.70;;;25.20;94.30;;;;;;5066117;28;20278;-44
2022/11/04 06:23:37;;;;;;;5.22;0.60;;;25.10;94.30;;;;;;5066014;28;20036;-43
2022/11/04 06:26:04;;;;;;;3.70;0.30;;;25.20;94.30;;;;;;5066202;28;20029;-47
2022/11/04 06:28:31;;;;;;;9.07;0.50;;;25.20;94.40;;;;;;5065883;28;20233;-49
2022/11/04 06:30:59;;;;;;;3.13;0.47;;;25.10;94.40;;;;;;5065744;28;20048;-43
2022/11/04 06:33:25;;;;;;;3.13;0.40;;;25.10;94.40;;;;;;5065958;28;20029;-43
2022/11/04 06:35:56;;;;;;;4.32;0.35;;;25.20;94.30;;;;;;5065905;28;20071;-45
2022/11/04 06:38:22;;;;;;;5.13;0.75;;;25.20;94.30;;;;;;5065661;28;20053;-44
2022/11/04 06:40:49;;;;;;;4.78;0.40;;;25.10;94.30;;;;;;5062083;28;20043;-45
2022/11/04 06:43:15;;;;;;;3.75;0.50;;;25.10;94.30;;;;;;5057017;28;20091;-46
2022/11/04 06:45:42;;;;;;;3.13;0.32;;;25.20;94.30;;;;;;5065572;28;20021;-52
2022/11/04 06:48:09;;;;;;;5.45;0.40;;;25.20;94.30;;;;;;5065895;28;20039;-49
2022/11/04 06:50:35;;;;;;;2.40;0.40;;;25.20;94.20;;;;;;5065572;28;20019;-48
2022/11/04 06:53:02;;;;;;;3.55;0.43;;;25.10;94.30;;;;;;5066102;28;20048;-48
2022/11/04 06:55:28;;;;;;;4.25;0.50;;;25.10;94.30;;;;;;5065697;28;20027;-43
2022/11/04 06:57:55;;;;;;;3.65;0.60;;;25.10;94.30;;;;;;5066392;28;20021;-43
2022/11/04 07:00:21;;;;;;;2.33;0.30;;;25.10;94.30;;;;;;5065616;28;20035;-45
2022/11/04 07:02:48;;;;;;;7.40;0.85;;;25.10;94.30;;;;;;5065792;28;20028;-42
2022/11/04 07:05:14;;;;;;;3.00;0.32;;;25.10;94.30;;;;;;5065265;28;20064;-48
2022/11/04 07:07:41;;;;;;;2.72;0.47;;;25.10;94.40;;;;;;5065589;28;20021;-48
2022/11/04 07:10:08;;;;;;;4.93;0.40;;;25.10;94.30;;;;;;5065086;28;20029;-46
2022/11/04 07:12:34;;;;;;;4.80;0.30;;;25.10;94.40;;;;;;5065784;28;20182;-43
2022/11/04 07:15:01;;;;;;;5.03;0.35;;;25.10;94.40;;;;;;5065193;28;20017;-43
2022/11/04 07:17:28;;;;;;;3.92;0.40;;;25.10;94.30;;;;;;5065477;28;20028;-50
2022/11/04 07:19:54;;;;;;;4.85;0.50;;;25.10;94.40;;;;;;5064999;28;20131;-44
2022/11/04 07:22:21;;;;;;;5.25;0.40;;;25.10;94.40;;;;;;5065439;28;20305;-45
2022/11/04 07:24:48;;;;;;;4.35;0.45;;;25.10;94.40;;;;;;5064882;28;20186;-41
2022/11/04 07:27:15;;;;;;;4.60;0.40;;;25.10;94.50;;;;;;5065039;28;20056;-49
2022/11/04 07:29:41;;;;;;;3.92;0.57;;;25.10;94.50;;;;;;5064850;28;20029;-47
2022/11/04 07:32:08;;;;;;;2.95;0.40;;;25.10;94.50;;;;;;5064910;28;20016;-43
2022/11/04 07:34:34;;;;;;;4.25;0.40;;;25.10;94.40;;;;;;5065028;28;20029;-51
2022/11/04 07:37:01;;;;;;;4.07;0.52;;;25.10;94.40;;;;;;5065284;28;20021;-50
2022/11/04 07:39:28;;;;;;;5.25;0.55;;;25.10;94.40;;;;;;5064535;28;20068;-44
2022/11/04 07:41:55;;;;;;;4.45;0.32;;;25.10;94.40;;;;;;5064974;28;20096;-43
2022/11/04 07:44:22;;;;;;;4.07;0.60;;;25.10;94.50;;;;;;5064659;28;20017;-46
2022/11/04 07:46:49;;;;;;;4.25;0.40;;;25.00;94.40;;;;;;5064445;28;20048;-43
2022/11/04 07:49:15;;;;;;;3.55;0.55;;;25.10;94.50;;;;;;5064483;28;20021;-42
2022/11/04 07:51:42;;;;;;;4.32;0.40;;;25.00;94.40;;;;;;5064697;28;20048;-47
2022/11/04 07:54:09;;;;;;;8.43;0.75;;;25.00;94.40;;;;;;5064623;28;20036;-46
2022/11/04 07:56:35;;;;;;;3.30;0.50;;;25.10;94.50;;;;;;5064546;28;20020;-47
2022/11/04 07:59:06;;;;;;;4.95;0.40;;;25.10;94.40;;;;;;5064255;28;20124;-44
2022/11/04 08:01:32;;;;;;;3.72;0.50;;;25.00;94.40;;;;;;5064319;28;20088;-43
2022/11/04 08:03:59;;;;;;;3.85;0.60;;;25.00;94.40;;;;;;5064308;28;20059;-48
2022/11/04 08:06:26;;;;;;;4.32;0.40;;;25.00;94.40;;;;;;5064261;28;20053;-44
2022/11/04 08:08:52;;;;;;;5.30;0.40;;;25.00;94.40;;;;;;5064076;28;20312;-51
2022/11/04 08:11:24;;;;;;;2.58;0.40;;;25.00;94.30;;;;;;5064451;28;20029;-43
2022/11/04 08:13:50;;;;;;;2.95;0.47;;;25.00;94.30;;;;;;5063504;28;20017;-47
2022/11/04 08:16:20;;;;;;;3.47;0.47;;;25.00;94.30;;;;;;5063930;28;20029;-44
2022/11/04 08:18:51;;;;;;;6.18;0.50;;;25.00;94.30;;;;;;5064122;28;20040;-46
2022/11/04 08:21:18;;;;;;;4.38;0.30;;;25.00;94.30;;;;;;5064141;28;20036;-46
2022/11/04 08:23:46;;;;;;;4.00;0.45;;;25.00;94.30;;;;;;5063668;28;20029;-50
2022/11/04 08:26:17;;;;;;;3.88;0.40;;;25.00;94.30;;;;;;5064154;28;20096;-42
2022/11/04 08:28:43;;;;;;;7.65;0.50;;;25.00;94.30;;;;;;5063686;28;20082;-46
2022/11/04 08:31:20;;;;;;;3.08;0.35;;;25.00;94.30;;;;;;5063808;28;20044;-45
2022/11/04 08:33:47;;;;;;;3.97;0.40;;;25.00;94.30;;;;;;5063966;28;20032;-48
2022/11/04 08:36:20;;;;;;;4.97;0.40;;;25.00;94.30;;;;;;5063565;28;20024;-51
2022/11/04 08:38:46;;;;;;;3.90;0.30;;;25.00;94.30;;;;;;5056764;28;20080;-42
2022/11/04 08:41:16;;;;;;;2.88;0.30;;;25.00;94.30;;;;;;5058627;28;20241;-44
2022/11/04 08:43:43;;;;;;;1.70;0.40;;;25.00;94.30;;;;;;5063717;28;20217;-42
2022/11/04 08:46:10;;;;;;;4.82;0.57;;;25.00;94.30;;;;;;5063705;28;20017;-43
2022/11/04 08:48:39;;;;;;;1.75;0.30;;;25.00;94.30;;;;;;5063493;28;20041;-45
2022/11/04 08:51:11;;;;;;;5.25;0.50;;;25.00;94.30;;;;;;5063579;28;20017;-43
2022/11/04 08:53:37;;;;;;;;;;;25.00;94.30;;;;;;5064286;28;20028;-42
2022/11/04 08:56:18;;;;;;;5.47;0.45;;;25.00;94.30;;;;;;5063841;28;19909;-44
2022/11/04 08:58:45;;;;;;;2.80;0.50;;;24.90;94.30;;;;;;5063725;28;20040;-44
2022/11/04 09:01:11;;;;;;;5.28;0.55;;;25.00;94.30;;;;;;5063591;28;20029;-43
2022/11/04 09:03:40;;;;;;;4.90;0.40;;;25.00;94.30;;;;;;5063431;28;20029;-43
2022/11/04 09:06:09;;;;;;;3.83;0.40;;;25.00;94.30;;;;;;5063383;28;20075;-45
2022/11/04 09:08:38;;;;;;;5.85;0.50;;;24.90;94.30;;;;;;5063527;28;20109;-46
2022/11/04 09:11:09;;;;;;;5.90;0.70;;;25.00;94.40;;;;;;5063547;28;20024;-42
2022/11/04 09:13:36;;;;;;;3.50;0.60;;;25.00;94.30;;;;;;5063640;28;20035;-54
2022/11/04 09:16:04;;;;;;;2.25;0.70;;;24.90;94.30;;;;;;5063567;28;20044;-44
2022/11/04 09:18:30;;;;;;;6.75;0.60;;;24.90;94.30;;;;;;5063591;28;20053;-49
2022/11/04 09:21:01;;;;;;;2.63;0.60;;;24.90;94.30;;;;;;5063465;28;20075;-47
2022/11/04 09:23:28;;;;;;;5.80;0.80;;;24.90;94.30;;;;;;5063553;28;20033;-41
2022/11/04 09:25:57;;;;;;;2.88;0.50;;;24.90;94.20;;;;;;5063500;28;20296;-42
2022/11/04 09:28:27;;;;;;;4.43;0.70;;;24.90;94.20;;;;;;5066796;28;20388;-42
2022/11/04 09:30:53;;;;;;;3.05;0.80;;;24.90;94.20;;;;;;5066900;28;20092;-52
2022/11/04 09:33:20;;;;;;;4.22;1.00;;;24.90;94.20;;;;;;5067146;28;20037;-42
2022/11/04 09:35:56;;;;;;;5.30;0.90;;;24.90;94.20;;;;;;5067020;28;20025;-48
2022/11/04 09:38:24;;;;;;;2.30;0.70;;;24.90;94.10;;;;;;5066736;28;20053;-44
2022/11/04 09:40:51;;;;;;;1.77;0.98;;;24.90;94.10;;;;;;5067062;28;20079;-40
2022/11/04 09:43:40;;;;;;;3.08;0.90;;;24.90;94.10;;;;;;5066997;28;20033;-42
2022/11/04 09:46:12;;;;;;;2.97;0.80;;;24.90;94.00;;;;;;5066786;28;20052;-43
2022/11/04 09:48:49;;;;;;;2.63;1.05;;;24.90;94.00;;;;;;5067199;28;20096;-47
2022/11/04 09:51:24;;;;;;;5.38;1.02;;;24.90;94.00;;;;;;5066742;28;20033;-51
2022/11/04 09:53:58;;;;;;;3.20;0.88;;;24.90;94.00;;;;;;5066758;28;20033;-47
2022/11/04 09:56:46;;;;;;;2.10;1.00;;;24.90;94.10;;;;;;5066501;28;20052;-47
2022/11/04 09:59:19;;;;;;;1.83;0.80;;;24.80;94.10;;;;;;5066556;28;20037;-47
2022/11/04 10:02:10;;;;;;;2.00;0.82;;;24.80;94.10;;;;;;5066730;28;20108;-45
2022/11/04 10:05:02;;;;;;;2.40;1.08;;;24.80;94.20;;;;;;5066358;28;20060;-54
2022/11/04 10:07:44;;;;;;;1.65;0.82;;;24.80;94.20;;;;;;5066676;28;20028;-47
2022/11/04 10:10:13;;;;;;;1.33;0.88;;;24.80;94.20;;;;;;5066833;28;20064;-44
2022/11/04 10:13:01;;;;;;;5.85;1.10;;;24.80;94.20;;;;;;5066649;28;20092;-43
2022/11/04 10:16:12;;;;;;;2.90;0.80;;;24.80;94.20;;;;;;5066253;28;20113;-46
2022/11/04 10:18:52;;;;;;;2.35;0.85;;;24.80;94.30;;;;;;5022334;28;20048;-44
2022/11/04 10:21:44;;;;;;;1.73;0.60;;;24.70;94.20;;;;;;5066189;28;20087;-47
2022/11/04 10:24:19;;;;;;;2.00;0.50;;;24.70;94.20;;;;;;5066075;28;20216;-43
2022/11/04 10:26:47;;;;;;;5.03;0.82;;;24.70;94.30;;;;;;5065949;28;20028;-42
2022/11/04 10:29:36;;;;;;;5.80;0.90;;;24.70;94.30;;;;;;5065942;28;20032;-48
2022/11/04 10:32:13;;;;;;;3.58;0.90;;;24.80;94.30;;;;;;5066580;28;20028;-49
2022/11/04 10:34:52;;;;;;;4.90;0.75;;;24.80;94.30;;;;;;5066122;28;20252;-43
2022/11/04 10:37:19;;;;;;;4.68;0.85;;;24.80;94.30;;;;;;5065783;28;20048;-42
2022/11/04 10:39:47;;;;;;;2.50;0.50;;;24.70;94.30;;;;;;5065256;28;20057;-50
2022/11/04 10:42:23;;;;;;;3.85;0.80;;;24.80;94.30;;;;;;5065995;28;20096;-41
2022/11/04 10:44:51;;;;;;;2.88;0.80;;;24.80;94.30;;;;;;5065564;28;20040;-48
2022/11/04 10:47:36;;;;;;;2.72;0.70;;;24.70;94.30;;;;;;5066002;28;20287;-50
2022/11/04 10:50:12;;;;;;;5.68;0.93;;;24.80;94.30;;;;;;5065724;28;20033;-44
2022/11/04 10:52:40;;;;;;;4.40;1.00;;;24.70;94.20;;;;;;5066053;28;20032;-45
2022/11/04 10:55:28;;;;;;;4.28;0.88;;;24.70;94.30;;;;;;5065447;28;20063;-46
2022/11/04 10:57:57;;;;;;;3.30;0.88;;;24.70;94.20;;;;;;5066364;28;20029;-43
2022/11/04 11:00:39;;;;;;;1.88;0.60;;;24.70;94.20;;;;;;5065106;28;20028;-42
2022/11/04 11:03:26;;;;;;;2.63;0.88;;;24.70;94.30;;;;;;5066103;28;20224;-43
2022/11/04 11:05:54;;;;;;;4.65;1.00;;;24.70;94.40;;;;;;5065164;28;20039;-42
2022/11/04 11:08:32;;;;;;;1.38;0.88;;;24.70;94.20;;;;;;5065236;28;20036;-44
2022/11/04 11:10:59;;;;;;;2.25;0.88;;;24.70;94.30;;;;;;5065104;28;20045;-47
2022/11/04 11:13:34;;;;;;;7.28;1.30;;;24.60;94.30;;;;;;5065420;28;20110;-43
2022/11/04 11:16:19;;;;;;;6.80;1.00;;;24.70;94.30;;;;;;5065299;28;20024;-44
2022/11/04 11:19:11;;;;;;;7.20;0.90;;;24.70;94.30;;;;;;5064880;28;20037;-41
2022/11/04 11:21:50;;;;;;;16.35;1.05;;;24.70;94.20;;;;;;5065181;28;20317;-46
2022/11/04 11:24:22;;;;;;;4.03;0.77;;;24.60;94.20;;;;;;5065029;28;20033;-43
2022/11/04 11:26:50;;;;;;;;;;;24.60;94.20;;;;;;5063967;28;20223;-42
2022/11/04 11:29:39;;;;;;;3.03;0.75;;;24.60;94.20;;;;;;5065430;28;19912;-41
2022/11/04 11:32:16;;;;;;;4.10;0.95;;;24.60;94.30;;;;;;5065231;28;20060;-41
2022/11/04 11:34:47;;;;;;;4.72;0.80;;;24.60;94.30;;;;;;5065024;28;20056;-43
2022/11/04 11:37:23;;;;;;;2.10;0.60;;;24.60;94.30;;;;;;5064166;28;20024;-40
2022/11/04 11:39:50;;;;;;;2.00;0.75;;;24.60;94.30;;;;;;5063050;28;20049;-39
2022/11/04 11:42:20;;;;;;;2.30;0.70;;;24.60;94.30;;;;;;5063334;28;20316;-48
2022/11/04 11:44:53;;;;;;;7.57;0.60;;;24.60;94.30;;;;;;5063018;28;20033;-46
2022/11/04 11:47:24;;;;;;;1.60;0.43;;;24.60;94.30;;;;;;5063293;28;20204;-42
2022/11/04 11:50:15;;;;;;;2.65;0.70;;;24.60;94.20;;;;;;5062282;28;20084;-42
2022/11/04 12:05:54;;;;;;;3.47;0.70;;;24.60;94.10;;;;;;5100900;27;20818;-40
2022/11/04 12:08:41;;;;;;;4.07;0.70;;;24.90;93.80;;;;;;5101352;28;20044;-39
2022/11/04 12:11:44;;;;;;;3.13;0.70;;;24.90;93.90;;;;;;5101073;28;20295;-45
2022/11/04 12:14:43;;;;;;;7.70;1.35;;;24.90;93.90;;;;;;5099303;28;20047;-39
2022/11/04 12:17:38;;;;;;;11.70;1.00;;;24.80;93.90;;;;;;5101140;28;20017;-46
2022/11/04 12:20:28;;;;;;;2.03;0.75;;;24.80;94.00;;;;;;5100962;28;20342;-39
2022/11/04 12:23:08;;;;;;;3.42;0.75;;;24.80;94.20;;;;;;5101098;28;20308;-43
2022/11/04 12:26:04;;;;;;;1.42;0.65;;;24.80;94.20;;;;;;5101006;28;20024;-43
2022/11/04 12:28:40;;;;;;;3.67;0.90;;;24.80;94.20;;;;;;5087834;28;20047;-38
2022/11/04 12:31:40;;;;;;;2.08;0.70;;;24.80;94.20;;;;;;5100885;28;20032;-41
2022/11/04 12:34:20;;;;;;;2.20;0.60;;;24.80;94.30;;;;;;5081397;28;20040;-51
2022/11/04 12:37:03;;;;;;;1.23;0.57;;;24.80;94.20;;;;;;5100770;28;20032;-43
2022/11/04 12:39:47;;;;;;;4.07;0.93;;;24.80;94.20;;;;;;5100592;28;20020;-47
2022/11/04 12:42:26;;;;;;;1.98;0.70;;;24.80;94.20;;;;;;5100525;28;20047;-42
2022/11/04 12:45:32;;;;;;;1.27;0.73;;;24.80;94.10;;;;;;5100548;28;20078;-47
2022/11/04 12:48:29;;;;;;;1.42;0.50;;;24.80;94.10;;;;;;5092307;28;20041;-42
2022/11/04 12:51:01;;;;;;;2.67;0.55;;;24.80;94.10;;;;;;5099628;28;20196;-39
2022/11/04 12:53:50;;;;;;;2.92;0.70;;;24.80;94.00;;;;;;5091302;28;20037;-41
2022/11/04 12:56:21;;;;;;;4.13;0.80;;;24.80;94.10;;;;;;5063235;28;20012;-41
2022/11/04 12:59:08;;;;;;;5.05;0.80;;;24.80;94.10;;;;;;5069077;28;20056;-38
2022/11/04 13:01:49;;;;;;;2.90;0.50;;;24.80;94.10;;;;;;5060000;28;20017;-46
2022/11/04 13:04:48;;;;;;;1.95;0.70;;;24.80;94.00;;;;;;5058051;28;20049;-41
2022/11/04 13:07:28;;;;;;;4.93;0.68;;;24.90;94.00;;;;;;5041247;28;20092;-41
2022/11/04 13:10:04;;;;;;;1.98;0.50;;;24.80;94.00;;;;;;5046551;28;20061;-43
2022/11/04 13:12:42;;;;;;;2.05;0.50;;;24.80;94.00;;;;;;5046415;28;20048;-46
2022/11/04 13:15:21;;;;;;;1.73;0.60;;;24.90;94.10;;;;;;5046432;28;20068;-42
2022/11/04 13:17:53;;;;;;;3.92;0.63;;;24.90;94.00;;;;;;5046289;28;20079;-39
2022/11/04 13:20:54;;;;;;;7.05;1.25;;;24.90;94.00;;;;;;5046345;28;20040;-45
2022/11/04 13:23:46;;;;;;;3.67;1.15;;;24.90;94.00;;;;;;5046150;28;20297;-38
2022/11/04 13:26:14;;;;;;;2.63;0.60;;;24.90;93.90;;;;;;5046344;28;20045;-43
2022/11/04 13:28:46;;;;;;;4.75;1.25;;;24.90;93.90;;;;;;5047474;28;20038;-49
2022/11/04 13:31:43;;;;;;;5.07;1.52;;;25.00;93.90;;;;;;5045122;28;20248;-39
2022/11/04 13:34:54;;;;;;;9.23;2.40;;;25.00;93.80;;;;;;5055402;28;20214;-42
2022/11/04 13:37:31;;;;;;;4.15;1.65;;;25.00;93.70;;;;;;5044244;28;20233;-39
2022/11/04 13:40:06;;;;;;;4.72;1.60;;;25.00;93.70;;;;;;5065968;28;20248;-48
2022/11/04 13:43:36;;;;;;;4.57;1.30;;;25.10;93.70;;;;;;5064708;28;20048;-37
2022/11/04 13:45:50;;;;;;;2.40;0.88;;;25.10;93.70;;;;;;5065591;28;20056;-36
2022/11/04 13:48:20;;;;;;;4.75;1.15;;;25.10;93.60;;;;;;5065091;28;20033;-43
2022/11/04 13:51:09;;;;;;;2.33;1.00;;;25.10;93.50;;;;;;5063647;28;20048;-38
2022/11/04 13:53:52;;;;;;;5.10;1.05;;;25.10;93.60;;;;;;5052429;28;20028;-44
2022/11/04 13:56:30;;;;;;;3.03;1.00;;;25.10;93.70;;;;;;5054841;28;20103;-41
2022/11/04 13:59:19;;;;;;;2.35;0.70;;;25.20;93.80;;;;;;5052932;28;20080;-41
2022/11/04 14:01:48;;;;;;;1.45;0.90;;;25.20;93.80;;;;;;5040102;28;20038;-39